Time;durP1;ratioP1;P1;durP2;ratioP2;P2;SDS_P1;SDS_P2;PMS_P1;PMS_P2;Temp;Humidity;BMP_temperature;BMP_pressure;BME280_temperature;BME280_humidity;BME280_pressure;Samples;Min_cycle;Max_cycle;Signal;HPM_P1;HPM_P2
2021/08/08 00:00:18;;;;;;;9.27;6.88;;;;;;;14.84;87.92;100077.31;693725;28;851;-57
2021/08/08 00:00:39;;;;;;;9.20;7.20;;;;;;;14.83;87.84;100072.97;693333;28;1909;-57
2021/08/08 00:00:59;;;;;;;9.38;7.32;;;;;;;14.86;88.11;100071.88;693526;28;1511;-58
2021/08/08 00:01:20;;;;;;;9.23;7.50;;;;;;;14.81;87.99;100074.88;693642;28;813;-57
2021/08/08 00:01:40;;;;;;;9.13;7.70;;;;;;;14.81;87.87;100068.72;693458;28;896;-58
2021/08/08 00:02:00;;;;;;;8.13;7.33;;;;;;;14.81;88.03;100066.06;693553;28;1504;-57
2021/08/08 00:02:21;;;;;;;8.40;7.50;;;;;;;14.75;88.19;100071.81;693587;28;1058;-57
2021/08/08 00:02:41;;;;;;;8.90;7.90;;;;;;;14.72;88.23;100071.06;693213;28;1007;-57
2021/08/08 00:03:01;;;;;;;8.83;7.33;;;;;;;14.75;88.18;100074.44;693572;28;893;-57
2021/08/08 00:03:24;;;;;;;8.93;7.60;;;;;;;14.70;88.45;100078.28;693547;28;864;-57
2021/08/08 00:03:47;;;;;;;9.55;7.97;;;;;;;14.74;88.57;100064.81;693467;28;963;-58
2021/08/08 00:04:08;;;;;;;8.45;7.32;;;;;;;14.76;88.49;100073.50;693598;28;916;-57
2021/08/08 00:04:30;;;;;;;8.97;7.40;;;;;;;14.77;88.38;100078.69;693572;28;975;-57
2021/08/08 00:04:50;;;;;;;8.52;7.50;;;;;;;14.81;88.65;100074.03;693613;28;862;-57
2021/08/08 00:05:14;;;;;;;8.48;7.55;;;;;;;14.83;88.32;100077.41;693573;28;785;-56
2021/08/08 00:05:34;;;;;;;8.18;7.22;;;;;;;14.85;88.17;100073.69;693563;28;816;-58
2021/08/08 00:05:55;;;;;;;8.43;7.03;;;;;;;14.84;88.07;100069.34;693555;28;807;-57
2021/08/08 00:06:18;;;;;;;9.00;7.38;;;;;;;14.85;88.23;100070.19;693563;28;856;-57
2021/08/08 00:06:41;;;;;;;9.05;7.28;;;;;;;14.84;88.61;100073.81;693677;28;862;-57
2021/08/08 00:07:04;;;;;;;8.40;7.40;;;;;;;14.83;88.49;100077.41;693123;28;1440;-57
2021/08/08 00:07:24;;;;;;;8.27;7.40;;;;;;;14.81;88.44;100071.38;693539;28;878;-57
2021/08/08 00:07:45;;;;;;;8.57;7.67;;;;;;;14.80;88.13;100073.19;693608;28;878;-57
2021/08/08 00:08:05;;;;;;;9.20;7.67;;;;;;;14.80;88.24;100067.03;693558;28;878;-57
2021/08/08 00:08:29;;;;;;;10.10;7.90;;;;;;;14.82;88.32;100070.41;693369;28;1452;-58
2021/08/08 00:08:50;;;;;;;8.80;7.43;;;;;;;14.83;88.24;100070.31;693610;28;1022;-57
2021/08/08 00:09:11;;;;;;;8.15;7.25;;;;;;;14.85;88.12;100075.50;693256;28;872;-57
2021/08/08 00:09:31;;;;;;;8.88;7.60;;;;;;;14.85;88.46;100072.84;693351;28;1412;-57
2021/08/08 00:09:51;;;;;;;8.70;7.60;;;;;;;14.84;88.20;100079.13;693375;28;932;-57
2021/08/08 00:10:13;;;;;;;8.50;7.53;;;;;;;14.85;88.81;100075.50;693349;28;584;-57
2021/08/08 00:10:33;;;;;;;8.63;7.50;;;;;;;14.81;88.73;100074.88;693429;28;928;-57
2021/08/08 00:10:54;;;;;;;9.27;7.87;;;;;;;14.81;88.73;100074.88;693287;28;1488;-57
2021/08/08 00:11:14;;;;;;;8.98;7.53;;;;;;;14.83;88.64;100077.41;693502;28;1404;-56
2021/08/08 00:11:35;;;;;;;8.17;7.37;;;;;;;14.86;88.83;100082.47;693633;28;827;-57
2021/08/08 00:11:55;;;;;;;8.63;7.18;;;;;;;14.87;88.70;100089.50;693482;28;933;-57
2021/08/08 00:12:15;;;;;;;9.00;7.30;;;;;;;14.89;88.70;100082.28;693642;28;844;-57
2021/08/08 00:12:37;;;;;;;9.48;7.43;;;;;;;14.89;88.31;100083.13;693658;28;971;-57
2021/08/08 00:12:57;;;;;;;8.73;7.32;;;;;;;14.91;88.59;100085.69;693095;28;1146;-58
2021/08/08 00:13:18;;;;;;;9.70;7.13;;;;;;;14.91;88.61;100085.69;693569;28;1038;-57
2021/08/08 00:13:38;;;;;;;9.27;7.50;;;;;;;14.89;88.66;100084.94;693630;28;808;-58
2021/08/08 00:13:59;;;;;;;8.60;7.70;;;;;;;14.90;88.62;100086.59;693458;28;847;-56
2021/08/08 00:14:19;;;;;;;8.30;7.23;;;;;;;14.92;88.61;100082.06;693572;28;865;-57
2021/08/08 00:14:40;;;;;;;9.10;7.30;;;;;;;14.91;88.50;100080.38;693370;28;1318;-57
2021/08/08 00:15:03;;;;;;;9.67;7.50;;;;;;;14.92;88.43;100076.75;693555;28;1006;-56
2021/08/08 00:15:24;;;;;;;9.55;8.10;;;;;;;14.94;88.70;100080.16;693677;28;887;-57
2021/08/08 00:15:44;;;;;;;9.32;7.88;;;;;;;14.94;88.33;100081.00;693458;28;809;-58
2021/08/08 00:16:05;;;;;;;9.67;8.10;;;;;;;14.95;88.54;100087.13;693586;28;931;-58
2021/08/08 00:16:29;;;;;;;9.17;7.60;;;;;;;14.96;88.65;100083.53;693590;28;831;-58
2021/08/08 00:16:49;;;;;;;11.30;7.90;;;;;;;14.98;88.43;100080.78;693520;28;869;-58
2021/08/08 00:17:10;;;;;;;9.33;7.80;;;;;;;14.98;88.29;100080.78;693537;28;1014;-58
2021/08/08 00:17:30;;;;;;;8.82;7.88;;;;;;;14.98;88.25;100080.78;693513;28;1051;-58
2021/08/08 00:17:50;;;;;;;8.53;7.70;;;;;;;14.99;88.24;100071.84;693445;28;1011;-57
2021/08/08 00:18:11;;;;;;;8.47;7.67;;;;;;;15.00;88.27;100073.53;693545;28;898;-57
2021/08/08 00:18:31;;;;;;;8.40;7.50;;;;;;;15.00;88.17;100074.38;693226;28;1496;-58
2021/08/08 00:18:52;;;;;;;9.18;7.72;;;;;;;15.00;88.29;100079.69;693648;28;803;-58
2021/08/08 00:19:12;;;;;;;8.83;7.80;;;;;;;14.99;87.99;100085.97;693559;28;983;-58
2021/08/08 00:19:35;;;;;;;9.20;7.70;;;;;;;14.98;88.12;100086.94;693340;28;1433;-58
2021/08/08 00:19:55;;;;;;;9.15;7.85;;;;;;;14.96;88.38;100078.22;693450;28;1212;-56
2021/08/08 00:20:16;;;;;;;9.93;7.90;;;;;;;14.95;88.31;100077.38;693612;28;816;-56
2021/08/08 00:20:37;;;;;;;9.70;8.33;;;;;;;14.93;88.69;100078.44;693504;28;967;-56
2021/08/08 00:20:57;;;;;;;9.27;8.23;;;;;;;14.92;88.41;100077.59;693337;28;1429;-56
2021/08/08 00:21:17;;;;;;;9.00;8.10;;;;;;;14.94;88.62;100077.50;693444;28;1361;-58
2021/08/08 00:21:38;;;;;;;8.87;7.97;;;;;;;14.95;88.63;100082.69;693467;28;862;-57
2021/08/08 00:21:58;;;;;;;9.53;8.00;;;;;;;14.95;88.79;100081.84;693665;28;831;-56
2021/08/08 00:22:18;;;;;;;10.23;8.65;;;;;;;14.94;89.08;100074.84;693456;28;829;-56
2021/08/08 00:22:39;;;;;;;9.07;8.17;;;;;;;14.98;88.77;100078.97;693311;28;891;-56
2021/08/08 00:23:01;;;;;;;9.50;8.23;;;;;;;14.98;88.96;100080.78;693360;28;951;-57
2021/08/08 00:23:21;;;;;;;10.55;8.63;;;;;;;15.01;89.14;100076.09;693399;28;1027;-57
2021/08/08 00:23:41;;;;;;;9.27;7.93;;;;;;;14.99;89.08;100085.97;693580;28;944;-57
2021/08/08 00:24:02;;;;;;;9.70;8.40;;;;;;;15.01;88.98;100076.09;693450;28;1175;-57
2021/08/08 00:24:22;;;;;;;9.27;8.27;;;;;;;15.03;88.82;100074.16;693522;28;868;-57
2021/08/08 00:24:43;;;;;;;9.40;8.33;;;;;;;15.03;88.66;100079.47;693608;28;808;-57
2021/08/08 00:25:09;;;;;;;10.40;8.40;;;;;;;14.97;88.84;100082.59;693224;28;1400;-57
2021/08/08 00:25:29;;;;;;;9.15;8.15;;;;;;;14.97;88.79;100079.94;693528;28;845;-58
2021/08/08 00:25:50;;;;;;;9.50;8.50;;;;;;;15.02;88.59;100076.94;693483;28;1034;-57
2021/08/08 00:26:10;;;;;;;9.38;8.25;;;;;;;15.01;88.81;100073.44;693481;28;854;-58
2021/08/08 00:26:31;;;;;;;9.87;8.30;;;;;;;15.04;88.77;100077.69;693052;28;1380;-58
2021/08/08 00:26:51;;;;;;;9.65;8.32;;;;;;;15.06;88.69;100078.41;693330;28;1437;-58
2021/08/08 00:27:12;;;;;;;9.68;8.27;;;;;;;15.07;88.51;100073.00;693522;28;828;-57
2021/08/08 00:27:34;;;;;;;10.00;8.30;;;;;;;15.01;88.77;100076.09;693595;28;888;-58
2021/08/08 00:27:54;;;;;;;9.43;8.05;;;;;;;15.00;88.74;100074.38;693593;28;892;-58
2021/08/08 00:28:14;;;;;;;9.47;8.47;;;;;;;15.00;88.74;100074.38;693494;28;796;-58
2021/08/08 00:28:35;;;;;;;9.77;8.73;;;;;;;15.00;88.87;100070.88;693636;28;947;-57
2021/08/08 00:28:58;;;;;;;9.50;8.50;;;;;;;14.96;88.76;100078.22;693536;28;781;-58
2021/08/08 00:29:19;;;;;;;9.57;8.45;;;;;;;14.88;89.30;100075.28;693487;28;1308;-58
2021/08/08 00:29:42;;;;;;;10.83;8.87;;;;;;;14.86;89.46;100078.03;693557;28;801;-58
2021/08/08 00:30:04;;;;;;;10.57;9.02;;;;;;;14.85;89.70;100075.50;693492;28;963;-58
2021/08/08 00:30:25;;;;;;;10.63;8.70;;;;;;;14.85;89.73;100080.81;693535;28;1082;-58
2021/08/08 00:30:45;;;;;;;11.20;9.03;;;;;;;14.86;89.62;100074.53;693510;28;975;-58
2021/08/08 00:31:05;;;;;;;10.83;8.93;;;;;;;14.87;89.68;100079.75;693304;28;1519;-58
2021/08/08 00:31:29;;;;;;;10.13;8.47;;;;;;;14.87;89.90;100074.44;693610;28;829;-58
2021/08/08 00:31:49;;;;;;;11.50;8.93;;;;;;;14.89;89.83;100079.63;693533;28;859;-58
2021/08/08 00:32:09;;;;;;;11.00;9.20;;;;;;;14.90;89.83;100076.88;693490;28;990;-58
2021/08/08 00:32:33;;;;;;;9.50;8.47;;;;;;;14.87;89.79;100078.91;693667;28;978;-58
2021/08/08 00:32:54;;;;;;;10.15;8.60;;;;;;;14.85;89.82;100080.81;692870;28;1093;-57
2021/08/08 00:33:14;;;;;;;10.48;8.68;;;;;;;14.85;89.86;100076.34;693407;28;1503;-57
2021/08/08 00:33:35;;;;;;;10.47;8.90;;;;;;;14.86;89.74;100077.19;693382;28;1393;-57
2021/08/08 00:33:55;;;;;;;10.47;8.53;;;;;;;14.87;89.91;100078.91;693393;28;1381;-56
2021/08/08 00:34:16;;;;;;;10.07;8.55;;;;;;;14.87;89.95;100081.56;693543;28;1007;-56
2021/08/08 00:34:36;;;;;;;11.17;8.60;;;;;;;14.87;90.11;100082.38;693557;28;858;-56
2021/08/08 00:34:56;;;;;;;10.63;8.73;;;;;;;14.83;90.03;100080.94;693368;28;995;-56
2021/08/08 00:35:19;;;;;;;11.07;8.82;;;;;;;14.81;90.07;100082.81;693595;28;867;-56
2021/08/08 00:35:42;;;;;;;9.73;8.60;;;;;;;14.81;90.21;100082.81;693393;28;856;-56
2021/08/08 00:36:03;;;;;;;9.88;8.88;;;;;;;14.82;90.37;100081.00;693424;28;939;-56
2021/08/08 00:36:23;;;;;;;9.93;8.67;;;;;;;14.84;90.31;100087.91;693477;28;904;-57
2021/08/08 00:36:43;;;;;;;9.45;8.25;;;;;;;14.85;90.36;100081.63;693448;28;1082;-56
2021/08/08 00:37:04;;;;;;;9.70;8.33;;;;;;;14.85;90.28;100088.75;693545;28;844;-57
2021/08/08 00:37:27;;;;;;;10.67;8.50;;;;;;;14.85;90.36;100084.28;693615;28;868;-57
2021/08/08 00:37:48;;;;;;;10.32;8.70;;;;;;;14.87;90.41;100081.56;693218;28;1392;-57
2021/08/08 00:38:09;;;;;;;9.73;8.13;;;;;;;14.88;90.11;100075.28;693538;28;1395;-56
2021/08/08 00:38:29;;;;;;;11.63;8.07;;;;;;;14.88;89.94;100076.13;693574;28;1066;-57
2021/08/08 00:38:51;;;;;;;10.10;8.10;;;;;;;14.89;90.26;100077.81;693638;28;800;-57
2021/08/08 00:39:16;;;;;;;10.02;8.30;;;;;;;14.91;90.05;100080.38;693328;28;1482;-57
2021/08/08 00:39:37;;;;;;;9.20;7.88;;;;;;;14.90;90.38;100073.34;693474;28;967;-57
2021/08/08 00:39:57;;;;;;;10.23;7.97;;;;;;;14.87;90.17;100086.84;693499;28;804;-57
2021/08/08 00:40:19;;;;;;;9.40;7.67;;;;;;;14.87;90.21;100079.75;693678;28;849;-57
2021/08/08 00:40:39;;;;;;;9.07;7.90;;;;;;;14.87;90.28;100079.75;693411;28;1964;-57
2021/08/08 00:40:59;;;;;;;9.13;7.90;;;;;;;14.85;90.40;100081.63;693443;28;1524;-57
2021/08/08 00:41:23;;;;;;;9.48;7.78;;;;;;;14.83;90.56;100078.28;693269;28;1373;-57
2021/08/08 00:41:44;;;;;;;9.68;7.78;;;;;;;14.86;90.50;100088.63;693650;28;868;-57
2021/08/08 00:42:04;;;;;;;10.63;7.97;;;;;;;14.89;90.19;100084.94;693574;28;935;-57
2021/08/08 00:42:24;;;;;;;8.93;7.70;;;;;;;14.88;90.26;100086.72;693431;28;1428;-57
2021/08/08 00:42:46;;;;;;;9.47;7.70;;;;;;;14.88;90.10;100075.28;693199;28;883;-57
2021/08/08 00:43:10;;;;;;;9.45;7.40;;;;;;;14.91;90.16;100085.69;693565;28;952;-57
2021/08/08 00:43:31;;;;;;;9.23;7.57;;;;;;;14.91;90.07;100090.97;693548;28;879;-57
2021/08/08 00:43:51;;;;;;;9.00;7.70;;;;;;;14.91;90.21;100083.03;693520;28;1227;-56
2021/08/08 00:44:14;;;;;;;9.38;7.70;;;;;;;14.91;90.18;100085.69;693412;28;1053;-57
2021/08/08 00:44:35;;;;;;;9.68;7.68;;;;;;;14.91;90.37;100085.69;692795;28;1235;-57
2021/08/08 00:44:55;;;;;;;10.30;7.80;;;;;;;14.91;90.39;100086.50;693482;28;1468;-57
2021/08/08 00:45:21;;;;;;;10.70;7.70;;;;;;;14.89;90.34;100085.75;693300;28;1648;-57
2021/08/08 00:45:41;;;;;;;11.40;8.05;;;;;;;14.90;90.26;100086.59;693593;28;876;-57
2021/08/08 00:46:02;;;;;;;9.00;7.60;;;;;;;14.88;90.43;100080.59;693493;28;874;-57
2021/08/08 00:46:22;;;;;;;8.88;7.53;;;;;;;14.89;90.56;100074.31;693396;28;1312;-57
2021/08/08 00:46:43;;;;;;;9.33;7.23;;;;;;;14.90;90.58;100089.25;693650;28;878;-57
2021/08/08 00:47:03;;;;;;;8.75;7.43;;;;;;;14.89;90.48;100083.13;693475;28;1073;-57
2021/08/08 00:47:26;;;;;;;9.50;7.80;;;;;;;14.89;90.35;100088.41;693558;28;860;-57
2021/08/08 00:47:47;;;;;;;9.15;7.60;;;;;;;14.91;90.59;100085.69;693501;28;936;-57
2021/08/08 00:48:10;;;;;;;9.82;7.65;;;;;;;14.87;90.51;100089.50;693424;28;871;-57
2021/08/08 00:48:31;;;;;;;11.18;7.63;;;;;;;14.81;90.49;100088.13;693350;28;1506;-57
2021/08/08 00:48:51;;;;;;;10.13;7.55;;;;;;;14.83;90.54;100090.66;693437;28;916;-57
2021/08/08 00:49:14;;;;;;;10.70;8.00;;;;;;;14.81;90.59;100089.94;693556;28;859;-57
2021/08/08 00:49:35;;;;;;;10.77;8.35;;;;;;;14.81;90.90;100089.94;693571;28;896;-57
2021/08/08 00:50:01;;;;;;;10.27;8.27;;;;;;;14.82;90.81;100086.31;693024;28;1512;-57
2021/08/08 00:50:21;;;;;;;10.63;8.10;;;;;;;14.81;90.69;100090.78;693543;28;903;-57
2021/08/08 00:50:42;;;;;;;11.57;8.10;;;;;;;14.82;90.82;100091.63;693661;28;809;-57
2021/08/08 00:51:02;;;;;;;11.27;8.10;;;;;;;14.82;90.95;100092.47;693359;28;1524;-57
2021/08/08 00:51:23;;;;;;;9.65;7.80;;;;;;;14.82;90.59;100094.28;693471;28;1401;-56
2021/08/08 00:51:43;;;;;;;10.10;8.10;;;;;;;14.78;90.79;100087.50;693456;28;936;-56
2021/08/08 00:52:04;;;;;;;9.80;8.05;;;;;;;14.77;90.89;100086.66;693454;28;907;-58
2021/08/08 00:52:24;;;;;;;10.48;8.00;;;;;;;14.77;91.10;100089.31;693481;28;1155;-57
2021/08/08 00:52:44;;;;;;;11.37;7.70;;;;;;;14.79;90.89;100094.50;693235;28;932;-57
2021/08/08 00:53:08;;;;;;;11.50;8.20;;;;;;;14.78;91.09;100090.16;693648;28;820;-56
2021/08/08 00:53:28;;;;;;;10.48;7.93;;;;;;;14.81;90.87;100095.25;693389;28;924;-57
2021/08/08 00:53:49;;;;;;;10.57;7.57;;;;;;;14.80;90.84;100083.78;693396;28;987;-57
2021/08/08 00:54:12;;;;;;;9.93;7.80;;;;;;;14.78;90.70;100091.00;693791;28;880;-57
2021/08/08 00:54:35;;;;;;;9.90;7.70;;;;;;;14.81;90.77;100095.25;693747;28;1090;-57
2021/08/08 00:54:55;;;;;;;10.88;7.80;;;;;;;14.81;91.07;100089.94;693548;28;1396;-56
2021/08/08 00:55:15;;;;;;;9.30;7.97;;;;;;;14.82;90.85;100091.63;693325;28;1229;-57
2021/08/08 00:55:36;;;;;;;9.57;7.78;;;;;;;14.82;90.90;100088.97;693960;28;887;-57
2021/08/08 00:55:56;;;;;;;9.23;7.40;;;;;;;14.85;90.70;100091.41;693750;28;1005;-56
2021/08/08 00:56:17;;;;;;;9.65;7.47;;;;;;;14.85;91.10;100091.41;693728;28;1344;-56
2021/08/08 00:56:38;;;;;;;8.87;7.30;;;;;;;14.84;91.10;100093.22;693819;28;823;-57
2021/08/08 00:56:58;;;;;;;10.45;7.50;;;;;;;14.85;91.09;100096.72;693962;28;828;-57
2021/08/08 00:57:18;;;;;;;11.55;7.70;;;;;;;14.84;90.88;100095.03;693811;28;1069;-57
2021/08/08 00:57:39;;;;;;;10.43;7.73;;;;;;;14.81;91.08;100097.91;693664;28;990;-57
2021/08/08 00:57:59;;;;;;;11.47;7.60;;;;;;;14.81;90.96;100095.25;693687;28;986;-57
2021/08/08 00:58:21;;;;;;;10.93;7.40;;;;;;;14.82;91.00;100091.63;693678;28;1432;-57
2021/08/08 00:58:41;;;;;;;10.25;6.78;;;;;;;14.79;90.83;100098.00;693718;28;953;-58
2021/08/08 00:59:02;;;;;;;10.27;6.83;;;;;;;14.81;90.98;100100.56;693819;28;963;-56
2021/08/08 00:59:22;;;;;;;11.10;6.63;;;;;;;14.82;91.06;100096.94;693472;28;1239;-57
2021/08/08 00:59:45;;;;;;;12.15;7.00;;;;;;;14.80;91.03;100096.22;693534;28;1011;-57
2021/08/08 01:00:08;;;;;;;12.02;6.72;;;;;;;14.83;90.78;100103.91;693422;28;864;-57
2021/08/08 01:00:28;;;;;;;13.38;6.22;;;;;;;14.83;90.49;100098.63;693451;28;919;-57
2021/08/08 01:00:52;;;;;;;13.43;6.43;;;;;;;14.81;90.55;100100.56;693486;28;1895;-57
2021/08/08 01:01:16;;;;;;;11.18;6.35;;;;;;;14.79;91.02;100097.16;693297;28;1432;-57
2021/08/08 01:01:41;;;;;;;12.00;6.60;;;;;;;14.87;90.70;100095.66;693474;28;1027;-57
2021/08/08 01:02:04;;;;;;;12.45;5.53;;;;;;;14.91;90.48;100101.59;693396;28;889;-57
2021/08/08 01:02:24;;;;;;;11.95;5.38;;;;;;;14.91;90.44;100098.94;692992;28;1389;-57
2021/08/08 01:02:49;;;;;;;11.23;5.55;;;;;;;14.91;90.50;100097.13;693095;28;852;-57
2021/08/08 01:03:15;;;;;;;10.88;5.82;;;;;;;14.91;90.36;100091.81;693456;28;1009;-57
2021/08/08 01:03:38;;;;;;;11.20;5.25;;;;;;;14.92;90.13;100090.84;693428;28;1187;-57
2021/08/08 01:04:04;;;;;;;11.15;5.10;;;;;;;14.93;90.18;100097.00;693480;28;888;-57
2021/08/08 01:04:33;;;;;;;10.85;5.18;;;;;;;14.95;90.00;100092.44;693449;28;816;-57
2021/08/08 01:05:03;;;;;;;12.55;5.03;;;;;;;14.95;90.08;100093.28;693504;28;925;-57
2021/08/08 01:05:28;;;;;;;12.43;5.15;;;;;;;14.96;90.26;100096.78;693694;28;971;-58
2021/08/08 01:05:52;;;;;;;11.60;4.97;;;;;;;14.97;90.13;100090.53;693842;28;1050;-58
2021/08/08 01:06:54;;;;;;;13.45;4.90;;;;;;;14.99;89.96;100087.78;693986;28;868;-58
2021/08/08 01:07:27;;;;;;;11.65;4.53;;;;;;;14.99;90.19;100091.25;693896;28;1039;-58
2021/08/08 01:08:08;;;;;;;13.02;4.50;;;;;;;15.06;89.50;100089.88;694058;28;952;-61
2021/08/08 01:08:30;;;;;;;11.35;4.80;;;;;;;15.07;89.46;100083.63;694008;28;990;-58
2021/08/08 01:08:57;;;;;;;13.65;4.60;;;;;;;15.09;89.17;100086.16;694019;28;936;-58
2021/08/08 01:09:19;;;;;;;12.45;4.85;;;;;;;15.10;89.33;100080.72;693983;28;1334;-58
2021/08/08 01:09:44;;;;;;;11.68;4.60;;;;;;;15.12;88.80;100083.28;694053;28;956;-58
2021/08/08 01:10:07;;;;;;;11.40;4.20;;;;;;;15.13;88.77;100083.16;693995;28;856;-58
2021/08/08 01:10:27;;;;;;;13.57;4.40;;;;;;;15.13;88.74;100080.50;694139;28;1060;-58
2021/08/08 01:10:48;;;;;;;10.15;4.28;;;;;;;15.15;88.50;100089.22;693822;28;896;-58
2021/08/08 01:11:12;;;;;;;12.27;4.47;;;;;;;15.15;88.42;100083.91;693412;28;1361;-58
2021/08/08 01:11:34;;;;;;;11.27;4.00;;;;;;;15.17;88.29;100079.34;693968;28;903;-58
2021/08/08 01:11:56;;;;;;;9.80;4.10;;;;;;;15.18;88.66;100086.34;693721;28;950;-58
2021/08/08 01:12:18;;;;;;;11.85;4.32;;;;;;;15.18;88.64;100085.50;693479;28;1264;-58
2021/08/08 01:12:39;;;;;;;10.52;4.18;;;;;;;15.20;88.33;100091.50;693423;28;975;-58
2021/08/08 01:13:02;;;;;;;11.18;4.43;;;;;;;15.20;88.57;100086.22;693215;28;830;-58
2021/08/08 01:13:26;;;;;;;11.38;4.55;;;;;;;15.19;88.53;100080.06;693383;28;1385;-58
2021/08/08 01:13:47;;;;;;;12.52;4.43;;;;;;;15.20;88.65;100081.75;693478;28;953;-59
2021/08/08 01:14:08;;;;;;;12.45;4.55;;;;;;;15.24;88.59;100081.53;693417;28;918;-58
2021/08/08 01:14:30;;;;;;;11.05;4.20;;;;;;;15.24;88.23;100079.72;693433;28;986;-57
2021/08/08 01:14:51;;;;;;;11.35;4.50;;;;;;;15.25;88.50;100078.78;693458;28;1767;-58
2021/08/08 01:15:12;;;;;;;10.88;4.60;;;;;;;15.25;88.29;100083.25;693396;28;859;-58
2021/08/08 01:15:32;;;;;;;13.13;4.22;;;;;;;15.25;88.55;100085.88;693621;28;831;-58
2021/08/08 01:15:53;;;;;;;10.60;4.00;;;;;;;15.27;88.53;100083.97;693416;28;973;-58
2021/08/08 01:16:14;;;;;;;9.70;4.35;;;;;;;15.26;88.36;100088.41;693499;28;891;-58
2021/08/08 01:16:39;;;;;;;10.43;4.00;;;;;;;15.28;88.45;100088.28;693448;28;866;-58
2021/08/08 01:17:04;;;;;;;12.23;4.00;;;;;;;15.28;88.54;100082.97;693639;28;1461;-61
2021/08/08 01:17:25;;;;;;;8.68;4.40;;;;;;;15.27;88.48;100081.31;693483;28;970;-57
2021/08/08 01:17:46;;;;;;;10.32;4.40;;;;;;;15.30;88.78;100086.38;693972;28;1249;-58
2021/08/08 01:18:10;;;;;;;10.57;4.40;;;;;;;15.30;88.51;100089.03;693419;28;942;-58
2021/08/08 01:18:32;;;;;;;12.23;4.43;;;;;;;15.29;88.47;100090.00;693369;28;1424;-58
2021/08/08 01:18:54;;;;;;;9.95;4.35;;;;;;;15.28;88.83;100083.84;693543;28;1038;-58
2021/08/08 01:19:18;;;;;;;10.90;4.20;;;;;;;15.30;88.52;100081.91;693354;28;1249;-58
2021/08/08 01:20:03;;;;;;;11.05;4.13;;;;;;;15.34;88.50;100088.69;693292;28;1459;-58
2021/08/08 01:20:29;;;;;;;12.30;4.60;;;;;;;15.36;88.35;100080.63;690448;28;1841;-58
2021/08/08 01:20:50;;;;;;;10.43;4.07;;;;;;;15.37;88.37;100084.97;690682;28;1919;-58
2021/08/08 01:21:12;;;;;;;10.80;3.95;;;;;;;15.38;88.34;100078.69;691229;28;1508;-58
2021/08/08 01:21:33;;;;;;;11.80;4.30;;;;;;;15.38;88.65;100089.31;693560;28;985;-58
2021/08/08 01:21:54;;;;;;;11.77;4.30;;;;;;;15.38;88.87;100081.34;693224;28;1395;-58
2021/08/08 01:22:19;;;;;;;12.75;4.40;;;;;;;15.38;88.92;100082.22;692584;28;1388;-58
2021/08/08 01:22:46;;;;;;;11.48;4.30;;;;;;;15.39;88.78;100085.72;693018;28;923;-57
2021/08/08 01:23:09;;;;;;;11.25;4.22;;;;;;;15.41;88.85;100073.16;693233;28;895;-58
2021/08/08 01:23:32;;;;;;;13.15;4.38;;;;;;;15.42;88.67;100086.34;693229;28;1181;-58
2021/08/08 01:23:56;;;;;;;11.88;4.30;;;;;;;15.43;88.88;100077.41;693443;28;954;-58
2021/08/08 01:24:17;;;;;;;11.57;4.70;;;;;;;15.43;88.57;100090.69;693455;28;867;-58
2021/08/08 01:24:38;;;;;;;12.15;4.25;;;;;;;15.43;88.75;100076.56;693395;28;1240;-58
2021/08/08 01:25:00;;;;;;;11.85;4.15;;;;;;;15.46;88.72;100072.84;693330;28;1448;-57
2021/08/08 01:25:22;;;;;;;10.20;4.22;;;;;;;15.47;88.54;100083.34;693314;28;1308;-58
2021/08/08 01:25:48;;;;;;;11.00;4.25;;;;;;;15.46;88.86;100076.34;693553;28;1486;-58
2021/08/08 01:26:11;;;;;;;11.68;3.90;;;;;;;15.47;88.73;100078.03;693496;28;914;-58
2021/08/08 01:26:33;;;;;;;10.90;4.20;;;;;;;15.48;88.73;100074.41;693284;28;1507;-58
2021/08/08 01:26:54;;;;;;;11.63;4.53;;;;;;;15.48;88.88;100077.06;693290;28;1429;-58
2021/08/08 01:27:16;;;;;;;12.53;4.53;;;;;;;15.49;88.82;100076.13;693363;28;947;-58
2021/08/08 01:27:38;;;;;;;13.45;4.35;;;;;;;15.50;88.79;100077.81;693475;28;891;-58
2021/08/08 01:28:01;;;;;;;13.25;4.30;;;;;;;15.51;89.18;100074.19;693373;28;1475;-58
2021/08/08 01:28:21;;;;;;;11.18;4.20;;;;;;;15.51;89.04;100074.19;693391;28;899;-57
2021/08/08 01:28:41;;;;;;;9.10;4.15;;;;;;;15.50;89.33;100080.47;693326;28;1460;-57
2021/08/08 01:29:06;;;;;;;11.40;4.67;;;;;;;15.51;89.40;100076.84;693419;28;863;-57
2021/08/08 01:29:30;;;;;;;13.38;5.00;;;;;;;15.53;89.37;100082.88;693461;28;1209;-57
2021/08/08 01:29:53;;;;;;;12.55;4.78;;;;;;;15.53;89.30;100077.56;693375;28;1519;-57
2021/08/08 01:30:13;;;;;;;11.18;4.68;;;;;;;15.53;89.45;100077.56;693334;28;878;-57
2021/08/08 01:30:33;;;;;;;10.83;4.40;;;;;;;15.54;89.29;100073.94;693489;28;899;-57
2021/08/08 01:30:54;;;;;;;12.05;4.30;;;;;;;15.55;89.53;100075.63;693443;28;1649;-57
2021/08/08 01:31:14;;;;;;;12.20;4.47;;;;;;;15.55;89.38;100075.63;693185;28;1393;-57
2021/08/08 01:31:34;;;;;;;11.60;4.50;;;;;;;15.54;89.49;100076.59;693526;28;1065;-57
2021/08/08 01:31:55;;;;;;;10.57;4.32;;;;;;;15.56;89.33;100081.81;693487;28;880;-57
2021/08/08 01:32:15;;;;;;;11.20;4.40;;;;;;;15.57;89.65;100079.03;693434;28;816;-57
2021/08/08 01:32:39;;;;;;;10.68;4.28;;;;;;;15.57;89.53;100081.69;693533;28;932;-57
2021/08/08 01:33:07;;;;;;;11.57;4.50;;;;;;;15.58;89.76;100075.41;693247;28;938;-57
2021/08/08 01:33:28;;;;;;;13.30;4.70;;;;;;;15.58;89.69;100080.72;693227;28;1464;-57
2021/08/08 01:33:48;;;;;;;11.27;4.87;;;;;;;15.58;89.79;100075.41;693377;28;1034;-57
2021/08/08 01:34:09;;;;;;;11.07;4.85;;;;;;;15.59;90.01;100070.97;693498;28;872;-57
2021/08/08 01:34:29;;;;;;;13.07;5.03;;;;;;;15.59;90.30;100070.97;693529;28;907;-58
2021/08/08 01:34:52;;;;;;;13.18;5.10;;;;;;;15.59;90.13;100077.13;693366;28;994;-57
2021/08/08 01:35:16;;;;;;;11.00;5.22;;;;;;;15.59;90.28;100082.44;693502;28;817;-57
2021/08/08 01:35:36;;;;;;;13.15;5.00;;;;;;;15.59;90.36;100079.78;693495;28;912;-57
2021/08/08 01:35:57;;;;;;;13.37;4.73;;;;;;;15.60;90.50;100084.13;693456;28;939;-57
2021/08/08 01:36:18;;;;;;;11.80;4.60;;;;;;;15.60;90.56;100084.13;693442;28;824;-58
2021/08/08 01:36:38;;;;;;;11.82;4.82;;;;;;;15.60;90.52;100084.13;693592;28;1069;-57
2021/08/08 01:36:59;;;;;;;9.87;4.57;;;;;;;15.60;90.59;100092.09;693447;28;1048;-58
2021/08/08 01:37:20;;;;;;;12.40;4.85;;;;;;;15.60;90.85;100089.44;693591;28;875;-57
2021/08/08 01:37:41;;;;;;;11.63;4.85;;;;;;;15.60;90.77;100088.59;693329;28;943;-57
2021/08/08 01:38:02;;;;;;;11.55;4.82;;;;;;;15.62;90.57;100086.66;693479;28;777;-57
2021/08/08 01:38:24;;;;;;;12.60;5.10;;;;;;;15.62;90.47;100092.84;693489;28;919;-57
2021/08/08 01:39:00;;;;;;;10.82;4.68;;;;;;;15.64;90.62;100090.06;693446;28;820;-58
2021/08/08 01:39:24;;;;;;;11.45;5.03;;;;;;;15.65;90.51;100089.91;693194;28;1334;-58
2021/08/08 01:39:58;;;;;;;11.45;4.80;;;;;;;15.79;90.04;100088.09;693146;28;959;-58
2021/08/08 01:40:25;;;;;;;12.23;4.90;;;;;;;15.75;90.04;100092.78;693253;28;864;-58
2021/08/08 01:40:54;;;;;;;12.60;4.68;;;;;;;15.74;90.40;100090.25;693094;28;1898;-57
2021/08/08 01:41:17;;;;;;;11.93;5.47;;;;;;;15.73;90.55;100089.41;693170;28;1326;-58
2021/08/08 01:42:05;;;;;;;13.15;5.18;;;;;;;15.73;90.36;100093.88;690652;28;931;-58
2021/08/08 01:42:26;;;;;;;13.90;5.05;;;;;;;15.70;90.57;100086.13;688875;28;1329;-58
2021/08/08 01:42:49;;;;;;;13.15;5.53;;;;;;;15.78;90.11;100091.72;690406;28;878;-58
2021/08/08 01:43:16;;;;;;;11.65;5.07;;;;;;;15.78;90.22;100091.72;690765;28;880;-57
2021/08/08 01:43:40;;;;;;;11.35;4.93;;;;;;;15.77;90.30;100096.19;690163;28;1139;-58
2021/08/08 01:44:02;;;;;;;12.40;5.03;;;;;;;15.75;90.41;100095.44;690426;28;1106;-57
2021/08/08 01:44:25;;;;;;;12.25;5.10;;;;;;;15.75;90.37;100095.44;690595;28;1090;-57
2021/08/08 01:44:48;;;;;;;12.82;4.80;;;;;;;15.74;90.65;100101.72;690837;28;883;-57
2021/08/08 01:45:13;;;;;;;11.93;4.85;;;;;;;15.75;90.24;100113.19;690857;28;1035;-57
2021/08/08 01:45:37;;;;;;;11.40;4.93;;;;;;;15.75;90.01;100091.94;690718;28;924;-57
2021/08/08 01:46:05;;;;;;;12.60;5.20;;;;;;;15.78;89.78;100100.53;691269;28;1488;-57